createdAt,value
2024-02-07T00:00:25.895Z,96561.19
2024-02-07T00:02:29.257Z,96560.41
2024-02-07T00:04:32.983Z,96551.97
2024-02-07T00:06:35.887Z,96554.09
2024-02-07T00:08:41.271Z,96561.72
2024-02-07T00:10:44.885Z,96553.81
2024-02-07T00:12:48.307Z,96553.28
2024-02-07T00:14:50.782Z,96553.53
2024-02-07T00:16:54.204Z,96552.22
2024-02-07T00:18:56.738Z,96547.22
2024-02-07T00:21:01.008Z,96539.09
2024-02-07T00:23:08.397Z,96542.50
2024-02-07T00:25:13.168Z,96539.38
2024-02-07T00:27:16.484Z,96529.09
2024-02-07T00:29:20.361Z,96537.22
2024-02-07T00:31:24.370Z,96533.59
2024-02-07T00:33:27.729Z,96528.06
2024-02-07T00:35:31.279Z,96523.06
2024-02-07T00:37:34.996Z,96520.19
2024-02-07T00:39:39.238Z,96518.88
2024-02-07T00:41:43.825Z,96514.13
2024-02-07T00:43:47.306Z,96506.53
2024-02-07T00:45:52.321Z,96511.50
2024-02-07T00:47:56.809Z,96504.69
2024-02-07T00:50:00.449Z,96512.81
2024-02-07T00:52:04.453Z,96513.88
2024-02-07T00:54:09.703Z,96510.72
2024-02-07T00:56:13.054Z,96509.94
2024-02-07T00:58:19.057Z,96504.94
2024-02-07T01:00:25.170Z,96509.16
2024-02-07T01:02:27.648Z,96515.97
2024-02-07T01:04:31.004Z,96503.09
2024-02-07T01:06:34.513Z,96497.31
2024-02-07T01:08:37.909Z,96489.44
2024-02-07T01:10:43.310Z,96487.06
2024-02-07T01:12:46.696Z,96479.47
2024-02-07T01:14:51.361Z,96489.44
2024-02-07T01:16:54.798Z,96481.28
2024-02-07T01:18:58.124Z,96477.88
2024-02-07T01:21:01.537Z,96484.16
2024-02-07T01:23:05.280Z,96480.50
2024-02-07T01:25:10.123Z,96483.13
2024-02-07T01:27:13.919Z,96481.53
2024-02-07T01:29:17.238Z,96484.16
2024-02-07T01:31:23.484Z,96493.13
2024-02-07T01:33:27.047Z,96481.03
2024-02-07T01:35:32.436Z,96488.13
2024-02-07T01:37:35.792Z,96479.44
2024-02-07T01:39:38.051Z,96471.56
2024-02-07T01:41:55.348Z,96481.28
2024-02-07T01:43:58.647Z,96472.38
2024-02-07T01:46:02.658Z,96473.94
2024-02-07T01:48:09.841Z,96466.03
2024-02-07T01:50:14.447Z,96471.84
2024-02-07T01:52:22.556Z,96465.25
2024-02-07T01:54:26.784Z,96468.91
2024-02-07T01:56:30.905Z,96465.75
2024-02-07T01:58:36.261Z,96464.19
2024-02-07T02:00:38.902Z,96459.19
2024-02-07T02:02:45.565Z,96461.28
2024-02-07T02:04:50.250Z,96451.81
2024-02-07T02:06:54.546Z,96457.84
2024-02-07T02:08:59.220Z,96448.63
2024-02-07T02:11:09.768Z,96458.09
2024-02-07T02:13:12.565Z,96450.44
2024-02-07T02:15:16.844Z,96450.19
2024-02-07T02:17:20.191Z,96444.69
2024-02-07T02:19:24.189Z,96448.09
2024-02-07T02:21:39.239Z,96448.59
2024-02-07T02:24:25.310Z,96440.44
2024-02-07T02:26:51.090Z,96427.81
2024-02-07T02:29:10.875Z,96432.81
2024-02-07T02:31:18.292Z,96427.78
2024-02-07T02:33:24.724Z,96421.22
2024-02-07T02:35:29.708Z,96420.97
2024-02-07T02:37:32.161Z,96419.38
2024-02-07T02:39:35.489Z,96428.34
2024-02-07T02:41:38.800Z,96417.81
2024-02-07T02:43:42.552Z,96425.44
2024-02-07T02:45:46.261Z,96420.19
2024-02-07T02:47:51.027Z,96418.59
2024-02-07T02:49:55.581Z,96415.69
2024-02-07T02:51:59.049Z,96410.72
2024-02-07T02:54:04.047Z,96402.28
2024-02-07T02:56:10.782Z,96399.91
2024-02-07T02:58:25.649Z,96397.56
2024-02-07T03:00:36.622Z,96412.31
2024-02-07T03:02:41.804Z,96411.00
2024-02-07T03:04:50.231Z,96398.88
2024-02-07T03:07:01.036Z,96411.25
2024-02-07T03:09:20.719Z,96403.63
2024-02-07T03:11:24.911Z,96405.72
2024-02-07T03:13:29.379Z,96401.81
2024-02-07T03:15:33.436Z,96399.97
2024-02-07T03:17:38.026Z,96391.31
2024-02-07T03:19:41.969Z,96394.19
2024-02-07T03:21:47.785Z,96383.94
2024-02-07T03:23:50.909Z,96393.66
2024-02-07T03:25:54.337Z,96379.75
2024-02-07T03:27:56.737Z,96384.22
2024-02-07T03:30:00.331Z,96386.31
2024-02-07T03:32:04.021Z,96386.31
2024-02-07T03:34:07.962Z,96379.75
2024-02-07T03:36:14.139Z,96372.13
2024-02-07T03:38:19.449Z,96371.63
2024-02-07T03:40:23.394Z,96366.88
2024-02-07T03:42:27.505Z,96362.91
2024-02-07T03:44:29.805Z,96359.75
2024-02-07T03:46:33.432Z,96347.91
2024-02-07T03:48:40.969Z,96351.84
2024-02-07T03:50:44.944Z,96346.31
2024-02-07T03:52:49.961Z,96349.72
2024-02-07T03:54:54.933Z,96350.50
2024-02-07T03:56:58.220Z,96341.56
2024-02-07T03:59:00.768Z,96341.56
2024-02-07T04:01:04.649Z,96346.56
2024-02-07T04:03:10.357Z,96334.47
2024-02-07T04:05:13.036Z,96337.88
2024-02-07T04:07:16.601Z,96331.03
2024-02-07T04:09:20.159Z,96325.25
2024-02-07T04:11:25.479Z,96321.84
2024-02-07T04:13:27.773Z,96320.78
2024-02-07T04:15:48.473Z,96321.84
2024-02-07T04:18:13.643Z,96327.91
2024-02-07T04:20:35.114Z,96314.22
2024-02-07T04:22:56.026Z,96316.34
2024-02-07T04:25:17.097Z,96326.09
2024-02-07T04:27:39.161Z,96314.78
2024-02-07T04:30:00.906Z,96316.63
2024-02-07T04:32:21.559Z,96306.88
2024-02-07T04:34:42.299Z,96312.16
2024-02-07T04:37:02.974Z,96303.97
2024-02-07T04:39:25.382Z,96303.97
2024-02-07T04:41:46.182Z,96308.97
2024-02-07T04:44:08.715Z,96305.28
2024-02-07T04:46:29.782Z,96305.03
2024-02-07T04:48:50.673Z,96306.06
2024-02-07T04:51:11.653Z,96298.16
2024-02-07T04:53:32.402Z,96295.25
2024-02-07T04:55:53.126Z,96292.34
2024-02-07T04:58:15.325Z,96278.44
2024-02-07T05:00:38.065Z,96272.63
2024-02-07T05:02:58.724Z,96268.47
2024-02-07T05:05:19.529Z,96266.88
2024-02-07T05:07:41.683Z,96275.53
2024-02-07T05:10:02.398Z,96266.09
2024-02-07T05:12:23.757Z,96271.59
2024-02-07T05:14:44.538Z,96270.84
2024-02-07T05:16:49.485Z,96267.69
2024-02-07T05:18:52.828Z,96276.09
2024-02-07T05:20:56.281Z,96273.19
2024-02-07T05:22:58.609Z,96275.81
2024-02-07T05:25:03.542Z,96262.94
2024-02-07T05:27:08.474Z,96263.72
2024-02-07T05:29:16.857Z,96261.88
2024-02-07T05:31:20.112Z,96249.53
2024-02-07T05:33:24.885Z,96245.06
2024-02-07T05:35:28.479Z,96258.22
2024-02-07T05:37:32.609Z,96257.94
2024-02-07T05:39:36.589Z,96247.16
2024-02-07T05:41:40.379Z,96256.84
2024-02-07T05:43:43.702Z,96254.75
2024-02-07T05:45:47.046Z,96252.63
2024-02-07T05:47:50.368Z,96250.53
2024-02-07T05:49:55.376Z,96246.03
2024-02-07T05:52:02.103Z,96253.66
2024-02-07T05:54:06.975Z,96264.97
2024-02-07T05:56:10.898Z,96245.22
2024-02-07T05:58:15.177Z,96239.44
2024-02-07T06:00:21.254Z,96240.25
2024-02-07T06:02:23.720Z,96239.16
2024-02-07T06:04:27.378Z,96229.16
2024-02-07T06:06:32.095Z,96232.31
2024-02-07T06:08:36.752Z,96219.63
2024-02-07T06:10:41.662Z,96228.06
2024-02-07T06:12:46.335Z,96225.44
2024-02-07T06:14:49.784Z,96225.16
2024-02-07T06:16:53.063Z,96223.81
2024-02-07T06:18:56.505Z,96209.88
2024-02-07T06:20:59.957Z,96204.59
2024-02-07T06:23:05.120Z,96209.38
2024-02-07T06:25:10.079Z,96209.38
2024-02-07T06:27:14.084Z,96216.50
2024-02-07T06:29:17.366Z,96220.94
2024-02-07T06:31:21.491Z,96214.63
2024-02-07T06:33:23.986Z,96208.59
2024-02-07T06:35:27.578Z,96216.50
2024-02-07T06:37:31.025Z,96201.19
2024-02-07T06:39:34.714Z,96209.09
2024-02-07T06:41:37.966Z,96210.66
2024-02-07T06:43:41.335Z,96202.78
2024-02-07T06:45:44.550Z,96209.31
2024-02-07T06:47:47.290Z,96232.75
2024-02-07T06:49:51.469Z,96216.69
2024-02-07T06:51:54.888Z,96213.78
2024-02-07T06:53:57.254Z,96221.38
2024-02-07T06:56:02.044Z,96219.53
2024-02-07T06:58:05.726Z,96219.25
2024-02-07T07:00:10.760Z,96222.38
2024-02-07T07:02:14.639Z,96218.41
2024-02-07T07:04:17.072Z,96212.88
2024-02-07T07:06:20.502Z,96221.81
2024-02-07T07:08:23.927Z,96227.59
2024-02-07T07:10:28.120Z,96220.19
2024-02-07T07:12:33.084Z,96223.03
2024-02-07T07:14:41.209Z,96220.94
2024-02-07T07:16:45.683Z,96227.22
2024-02-07T07:18:50.775Z,96217.69
2024-02-07T07:20:54.317Z,96220.28
2024-02-07T07:23:07.536Z,96205.22
2024-02-07T07:25:18.758Z,96202.75
2024-02-07T07:27:22.066Z,96207.13
2024-02-07T07:29:26.788Z,96210.44
2024-02-07T07:31:31.699Z,96210.03
2024-02-07T07:33:35.507Z,96205.69
2024-02-07T07:35:38.992Z,96209.88
2024-02-07T07:37:41.486Z,96189.28
2024-02-07T07:39:44.859Z,96205.31
2024-02-07T07:41:49.210Z,96203.66
2024-02-07T07:43:53.504Z,96198.34
2024-02-07T07:45:58.282Z,96205.69
2024-02-07T07:48:00.722Z,96203.25
2024-02-07T07:50:08.678Z,96189.94
2024-02-07T07:52:12.922Z,96203.22
2024-02-07T07:54:16.342Z,96182.41
2024-02-07T07:56:19.643Z,96176.03
2024-02-07T07:58:27.148Z,96169.41
2024-02-07T08:00:35.177Z,96160.66
2024-02-07T08:02:41.565Z,96167.50
2024-02-07T08:04:45.063Z,96177.13
2024-02-07T08:06:49.007Z,96171.44
2024-02-07T08:08:51.469Z,96152.94
2024-02-07T08:10:54.733Z,96180.44
2024-02-07T08:12:57.931Z,96161.44
2024-02-07T08:15:01.220Z,96195.78
2024-02-07T08:17:05.040Z,96170.75
2024-02-07T08:19:10.134Z,96172.13
2024-02-07T08:21:13.408Z,96170.56
2024-02-07T08:23:16.828Z,96169.19
2024-02-07T08:25:22.506Z,96172.03
2024-02-07T08:27:27.153Z,96158.22
2024-02-07T08:29:31.434Z,96164.78
2024-02-07T08:31:34.744Z,96157.03
2024-02-07T08:33:38.955Z,96144.50
2024-02-07T08:35:43.946Z,96152.84
2024-02-07T08:37:47.772Z,96138.38
2024-02-07T08:39:51.056Z,96152.66
2024-02-07T08:41:55.861Z,96148.13
2024-02-07T08:43:59.924Z,96138.47
2024-02-07T08:46:02.231Z,96144.19
2024-02-07T08:48:07.436Z,96122.19
2024-02-07T08:50:11.884Z,96143.78
2024-02-07T08:52:16.636Z,96137.63
2024-02-07T08:54:20.244Z,96141.19
2024-02-07T08:56:24.024Z,96143.28
2024-02-07T08:58:27.390Z,96141.91
2024-02-07T09:00:30.878Z,96137.75
2024-02-07T09:02:34.250Z,96139.50
2024-02-07T09:04:37.760Z,96134.22
2024-02-07T09:06:41.116Z,96119.13
2024-02-07T09:08:45.819Z,96123.78
2024-02-07T09:10:49.150Z,96130.22
2024-02-07T09:12:52.441Z,96126.97
2024-02-07T09:14:56.395Z,96124.31
2024-02-07T09:17:00.636Z,96130.03
2024-02-07T09:19:03.987Z,96132.22
2024-02-07T09:21:07.368Z,96119.25
2024-02-07T09:23:10.676Z,96127.47
2024-02-07T09:25:14.785Z,96117.16
2024-02-07T09:27:19.931Z,96133.16
2024-02-07T09:29:23.914Z,96108.66
2024-02-07T09:31:27.384Z,96127.03
2024-02-07T09:33:30.941Z,96128.59
2024-02-07T09:35:34.332Z,96123.78
2024-02-07T09:37:38.073Z,96126.13
2024-02-07T09:39:41.484Z,96126.59
2024-02-07T09:41:48.236Z,96110.69
2024-02-07T09:43:57.381Z,96112.88
2024-02-07T09:46:01.680Z,96112.69
2024-02-07T09:48:20.261Z,96117.03
2024-02-07T09:50:24.940Z,96116.22
2024-02-07T09:52:32.623Z,96119.03
2024-02-07T09:54:36.081Z,96102.34
2024-02-07T09:56:40.598Z,96105.28
2024-02-07T09:58:45.934Z,96117.75
2024-02-07T10:00:52.693Z,96102.94
2024-02-07T10:02:57.219Z,96101.25
2024-02-07T10:05:06.460Z,96111.09
2024-02-07T10:07:13.439Z,96111.56
2024-02-07T10:09:18.321Z,96113.91
2024-02-07T10:11:23.702Z,96112.22
2024-02-07T10:13:27.417Z,96103.88
2024-02-07T10:15:33.161Z,96116.50
2024-02-07T10:17:36.499Z,96116.84
2024-02-07T10:19:40.770Z,96110.31
2024-02-07T10:21:44.085Z,96110.97
2024-02-07T10:23:49.579Z,96099.03
2024-02-07T10:25:53.752Z,96085.81
2024-02-07T10:28:04.728Z,96102.16
2024-02-07T10:30:10.143Z,96090.63
2024-02-07T10:32:21.925Z,96091.13
2024-02-07T10:34:25.556Z,96082.53
2024-02-07T10:36:29.091Z,96099.38
2024-02-07T10:38:35.353Z,96081.13
2024-02-07T10:40:40.636Z,96092.66
2024-02-07T10:42:44.026Z,96078.00
2024-02-07T10:44:47.376Z,96084.88
2024-02-07T10:46:59.918Z,96070.06
2024-02-07T10:49:05.725Z,96095.19
2024-02-07T10:51:09.221Z,96069.91
2024-02-07T10:53:12.944Z,96072.09
2024-02-07T10:55:16.770Z,96060.53
2024-02-07T10:57:26.790Z,96091.13
2024-02-07T10:59:32.162Z,96059.75
2024-02-07T11:01:35.736Z,96063.66
2024-02-07T11:03:39.988Z,96056.66
2024-02-07T11:05:44.637Z,96054.16
2024-02-07T11:07:49.426Z,96046.03
2024-02-07T11:09:54.716Z,96045.41
2024-02-07T11:11:59.085Z,96047.75
2024-02-07T11:14:06.781Z,96047.75
2024-02-07T11:16:10.402Z,96038.38
2024-02-07T11:18:14.641Z,96028.69
2024-02-07T11:20:19.308Z,96031.34
2024-02-07T11:22:30.326Z,96033.06
2024-02-07T11:24:36.018Z,96027.47
2024-02-07T11:26:39.864Z,96017.94
2024-02-07T11:28:43.795Z,96041.66
2024-02-07T11:30:50.424Z,96032.78
2024-02-07T11:32:53.592Z,96016.69
2024-02-07T11:35:03.228Z,96028.25
2024-02-07T11:37:10.765Z,96001.88
2024-02-07T11:39:18.317Z,96014.22
2024-02-07T11:41:21.804Z,95993.91
2024-02-07T11:43:25.652Z,96011.41
2024-02-07T11:45:29.798Z,96003.44
2024-02-07T11:47:38.458Z,96000.03
2024-02-07T11:49:42.525Z,95992.84
2024-02-07T11:51:46.023Z,96003.63
2024-02-07T11:53:49.263Z,95993.16
2024-02-07T11:55:54.283Z,96001.25
2024-02-07T11:57:58.333Z,96001.41
2024-02-07T12:00:03.288Z,95991.44
2024-02-07T12:02:08.318Z,96000.16
2024-02-07T12:04:11.763Z,96000.78
2024-02-07T12:06:15.294Z,95974.13
2024-02-07T12:08:19.675Z,95977.69
2024-02-07T12:10:23.445Z,95995.78
2024-02-07T12:12:28.727Z,95987.38
2024-02-07T12:14:32.006Z,96005.94
2024-02-07T12:16:36.304Z,95974.72
2024-02-07T12:18:39.640Z,95965.56
2024-02-07T12:20:43.126Z,95970.06
2024-02-07T12:22:48.673Z,95957.44
2024-02-07T12:24:53.337Z,95942.66
2024-02-07T12:26:56.677Z,95955.41
2024-02-07T12:29:07.489Z,95955.72
2024-02-07T12:31:10.968Z,95964.75
2024-02-07T12:33:14.420Z,95943.88
2024-02-07T12:35:19.581Z,95944.03
2024-02-07T12:37:23.416Z,95945.88
2024-02-07T12:39:26.836Z,95940.91
2024-02-07T12:41:30.099Z,95935.13
2024-02-07T12:43:33.393Z,95944.97
2024-02-07T12:45:38.061Z,95944.16
2024-02-07T12:47:42.564Z,95942.31
2024-02-07T12:49:45.574Z,95966.94
2024-02-07T12:51:49.641Z,95943.09
2024-02-07T12:53:53.187Z,95920.81
2024-02-07T12:55:56.769Z,95947.31
2024-02-07T12:58:02.361Z,95947.94
2024-02-07T13:00:13.553Z,95944.47
2024-02-07T13:02:19.192Z,95924.53
2024-02-07T13:04:22.719Z,95925.78
2024-02-07T13:06:26.562Z,95939.03
2024-02-07T13:08:28.968Z,95926.56
2024-02-07T13:10:32.515Z,95919.25
2024-02-07T13:12:36.940Z,95914.72
2024-02-07T13:14:40.591Z,95922.66
2024-02-07T13:16:44.967Z,95921.91
2024-02-07T13:18:48.824Z,95928.59
2024-02-07T13:20:52.460Z,95908.97
2024-02-07T13:22:55.877Z,95886.19
2024-02-07T13:25:02.694Z,95900.25
2024-02-07T13:27:07.645Z,95901.47
2024-02-07T13:29:11.929Z,95907.56
2024-02-07T13:31:15.639Z,95905.69
2024-02-07T13:33:18.972Z,95901.94
2024-02-07T13:35:23.716Z,95894.31
2024-02-07T13:37:27.084Z,95910.97
2024-02-07T13:39:30.515Z,95886.38
2024-02-07T13:41:34.357Z,95882.16
2024-02-07T13:43:37.899Z,95875.28
2024-02-07T13:45:40.192Z,95888.53
2024-02-07T13:47:43.579Z,95872.94
2024-02-07T13:49:47.052Z,95894.16
2024-02-07T13:51:50.945Z,95883.88
2024-02-07T13:53:55.270Z,95894.47
2024-02-07T13:55:59.098Z,95879.38
2024-02-07T13:58:02.491Z,95884.94
2024-02-07T14:00:07.322Z,95889.16
2024-02-07T14:02:11.142Z,95882.78
2024-02-07T14:04:14.646Z,95872.63
2024-02-07T14:06:17.977Z,95879.19
2024-02-07T14:08:22.896Z,95878.41
2024-02-07T14:10:26.318Z,95877.63
2024-02-07T14:12:30.060Z,95861.28
2024-02-07T14:14:33.620Z,95866.13
2024-02-07T14:16:37.767Z,95871.69
2024-02-07T14:18:41.173Z,95868.59
2024-02-07T14:20:44.715Z,95859.06
2024-02-07T14:22:48.214Z,95871.09
2024-02-07T14:24:52.876Z,95867.03
2024-02-07T14:26:56.140Z,95875.91
2024-02-07T14:31:04.323Z,95860.66
2024-02-07T14:33:08.814Z,95859.69
2024-02-07T14:35:12.928Z,95858.00
2024-02-07T14:37:16.801Z,95867.34
2024-02-07T14:39:23.546Z,95853.44
2024-02-07T14:41:28.821Z,95846.28
2024-02-07T14:43:31.912Z,95854.06
2024-02-07T14:45:35.468Z,95853.59
2024-02-07T14:47:38.982Z,95854.06
2024-02-07T14:49:42.427Z,95845.34
2024-02-07T14:51:45.824Z,95851.72
2024-02-07T14:53:49.108Z,95856.88
2024-02-07T14:55:54.060Z,95853.31
2024-02-07T14:57:57.766Z,95843.34
2024-02-07T15:00:01.468Z,95853.63
2024-02-07T15:02:05.098Z,95862.50
2024-02-07T15:04:08.383Z,95837.09
2024-02-07T15:06:12.031Z,95846.13
2024-02-07T15:08:16.385Z,95839.13
2024-02-07T15:10:18.985Z,95842.09
2024-02-07T15:12:23.481Z,95838.50
2024-02-07T15:14:28.109Z,95847.09
2024-02-07T15:16:32.981Z,95828.53
2024-02-07T15:18:36.414Z,95829.94
2024-02-07T15:20:41.721Z,95830.25
2024-02-07T15:22:44.429Z,95819.97
2024-02-07T15:24:47.697Z,95818.72
2024-02-07T15:26:51.113Z,95821.22
2024-02-07T15:28:54.414Z,95832.75
2024-02-07T15:30:59.502Z,95828.88
2024-02-07T15:33:03.756Z,95832.91
2024-02-07T15:35:09.167Z,95825.59
2024-02-07T15:37:12.542Z,95823.56
2024-02-07T15:39:15.869Z,95818.56
2024-02-07T15:41:19.438Z,95816.22
2024-02-07T15:43:23.925Z,95814.66
2024-02-07T15:45:27.287Z,95822.91
2024-02-07T15:47:32.050Z,95816.03
2024-02-07T15:49:38.663Z,95808.09
2024-02-07T15:51:42.156Z,95799.38
2024-02-07T15:53:45.395Z,95800.00
2024-02-07T15:55:48.965Z,95789.75
2024-02-07T15:57:51.800Z,95793.00
2024-02-07T15:59:55.120Z,95801.25
2024-02-07T16:01:58.933Z,95799.69
2024-02-07T16:04:03.702Z,95787.84
2024-02-07T16:06:07.213Z,95781.47
2024-02-07T16:08:11.019Z,95793.16
2024-02-07T16:10:15.478Z,95786.63
2024-02-07T16:12:18.855Z,95791.13
2024-02-07T16:14:22.791Z,95795.97
2024-02-07T16:16:26.136Z,95784.59
2024-02-07T16:18:32.072Z,95781.94
2024-02-07T16:20:38.532Z,95779.91
2024-02-07T16:22:42.012Z,95793.94
2024-02-07T16:24:45.652Z,95790.50
2024-02-07T16:26:49.297Z,95789.72
2024-02-07T16:28:52.786Z,95785.50
2024-02-07T16:30:56.037Z,95791.91
2024-02-07T16:32:59.461Z,95789.59
2024-02-07T16:35:04.506Z,95788.03
2024-02-07T16:37:10.399Z,95787.53
2024-02-07T16:39:13.949Z,95792.81
2024-02-07T16:41:17.477Z,95779.59
2024-02-07T16:43:21.647Z,95782.56
2024-02-07T16:45:25.089Z,95790.81
2024-02-07T16:47:28.951Z,95788.47
2024-02-07T16:49:33.428Z,95788.00
2024-02-07T16:51:37.331Z,95785.38
2024-02-07T16:53:42.151Z,95781.47
2024-02-07T16:55:45.669Z,95781.47
2024-02-07T16:57:49.263Z,95784.41
2024-02-07T16:59:52.768Z,95777.56
2024-02-07T17:01:56.241Z,95772.28
2024-02-07T17:03:59.634Z,95772.28
2024-02-07T17:06:02.230Z,95780.06
2024-02-07T17:08:07.157Z,95779.25
2024-02-07T17:10:12.239Z,95776.16
2024-02-07T17:12:14.606Z,95773.50
2024-02-07T17:14:18.041Z,95777.25
2024-02-07T17:16:21.436Z,95781.75
2024-02-07T17:18:24.863Z,95789.69
2024-02-07T17:20:28.278Z,95780.19
2024-02-07T17:22:33.924Z,95784.72
2024-02-07T17:24:41.239Z,95783.78
2024-02-07T17:26:48.026Z,95777.22
2024-02-07T17:28:53.717Z,95777.22
2024-02-07T17:30:57.154Z,95762.47
2024-02-07T17:33:01.801Z,95782.81
2024-02-07T17:35:06.239Z,95782.38
2024-02-07T17:37:09.774Z,95767.25
2024-02-07T17:39:15.075Z,95789.53
2024-02-07T17:41:19.528Z,95781.88
2024-02-07T17:43:24.270Z,95795.09
2024-02-07T17:45:27.556Z,95774.25
2024-02-07T17:47:31.319Z,95783.00
2024-02-07T17:49:34.741Z,95786.41
2024-02-07T17:51:42.308Z,95787.16
2024-02-07T17:53:45.654Z,95778.47
2024-02-07T17:55:48.064Z,95782.69
2024-02-07T17:57:52.247Z,95778.47
2024-02-07T17:59:57.189Z,95767.56
2024-02-07T18:02:01.134Z,95771.47
2024-02-07T18:04:04.904Z,95777.53
2024-02-07T18:06:08.968Z,95764.00
2024-02-07T18:08:12.430Z,95772.72
2024-02-07T18:10:16.066Z,95780.66
2024-02-07T18:12:19.344Z,95763.53
2024-02-07T18:14:22.813Z,95764.63
2024-02-07T18:16:27.636Z,95758.88
2024-02-07T18:18:31.085Z,95755.16
2024-02-07T18:20:34.854Z,95758.56
2024-02-07T18:22:38.796Z,95738.97
2024-02-07T18:24:42.321Z,95746.91
2024-02-07T18:26:48.172Z,95756.06
2024-02-07T18:28:51.642Z,95743.63
2024-02-07T18:30:54.976Z,95761.84
2024-02-07T18:32:59.650Z,95747.34
2024-02-07T18:35:03.046Z,95742.84
2024-02-07T18:37:09.208Z,95752.66
2024-02-07T18:39:12.602Z,95750.63
2024-02-07T18:41:16.045Z,95750.31
2024-02-07T18:43:19.336Z,95746.59
2024-02-07T18:45:22.630Z,95743.16
2024-02-07T18:47:26.504Z,95747.97
2024-02-07T18:49:31.478Z,95743.75
2024-02-07T18:51:37.494Z,95750.63
2024-02-07T18:53:41.795Z,95735.53
2024-02-07T18:55:45.221Z,95741.91
2024-02-07T18:57:47.549Z,95738.78
2024-02-07T18:59:50.790Z,95736.13
2024-02-07T19:01:54.178Z,95735.06
2024-02-07T19:03:57.470Z,95738.78
2024-02-07T19:06:02.451Z,95740.19
2024-02-07T19:08:06.752Z,95732.56
2024-02-07T19:10:11.105Z,95736.00
2024-02-07T19:12:14.372Z,95736.75
2024-02-07T19:14:17.825Z,95744.69
2024-02-07T19:16:22.635Z,95737.84
2024-02-07T19:18:26.270Z,95730.22
2024-02-07T19:20:29.723Z,95727.13
2024-02-07T19:22:34.428Z,95730.84
2024-02-07T19:24:38.080Z,95727.13
2024-02-07T19:26:41.759Z,95733.16
2024-02-07T19:28:45.128Z,95731.31
2024-02-07T19:30:49.145Z,95731.31
2024-02-07T19:32:51.518Z,95729.75
2024-02-07T19:34:55.201Z,95719.50
2024-02-07T19:36:58.957Z,95720.56
2024-02-07T19:39:03.921Z,95729.28
2024-02-07T19:41:07.420Z,95726.94
2024-02-07T19:43:11.147Z,95728.34
2024-02-07T19:45:14.407Z,95725.84
2024-02-07T19:47:17.766Z,95721.63
2024-02-07T19:49:21.148Z,95724.28
2024-02-07T19:51:23.692Z,95720.41
2024-02-07T19:53:27.012Z,95720.41
2024-02-07T19:55:31.768Z,95719.16
2024-02-07T19:57:35.046Z,95707.00
2024-02-07T19:59:38.355Z,95722.88
2024-02-07T20:01:41.714Z,95714.78
2024-02-07T20:03:45.169Z,95713.03
2024-02-07T20:05:49.799Z,95716.31
2024-02-07T20:07:53.463Z,95716.16
2024-02-07T20:09:57.524Z,95707.47
2024-02-07T20:12:02.804Z,95705.88
2024-02-07T20:14:05.545Z,95705.56
2024-02-07T20:16:09.142Z,95705.88
2024-02-07T20:18:14.537Z,95698.72
2024-02-07T20:20:18.312Z,95706.34
2024-02-07T20:22:21.950Z,95704.81
2024-02-07T20:24:25.952Z,95696.09
2024-02-07T20:26:30.732Z,95699.34
2024-02-07T20:28:36.345Z,95696.25
2024-02-07T20:30:40.624Z,95701.53
2024-02-07T20:32:44.009Z,95697.31
2024-02-07T20:34:47.496Z,95691.56
2024-02-07T20:36:52.676Z,95703.22
2024-02-07T20:38:56.004Z,95699.31
2024-02-07T20:40:59.722Z,95708.63
2024-02-07T20:43:03.728Z,95714.22
2024-02-07T20:45:09.151Z,95696.81
2024-02-07T20:47:12.735Z,95699.94
2024-02-07T20:49:16.475Z,95704.16
2024-02-07T20:51:19.864Z,95706.47
2024-02-07T20:53:23.414Z,95696.97
2024-02-07T20:55:26.718Z,95697.75
2024-02-07T20:57:31.056Z,95698.84
2024-02-07T20:59:34.577Z,95693.25
2024-02-07T21:01:39.765Z,95692.00
2024-02-07T21:03:43.035Z,95687.19
2024-02-07T21:05:47.565Z,95691.69
2024-02-07T21:07:51.030Z,95683.00
2024-02-07T21:09:54.393Z,95683.31
2024-02-07T21:11:57.652Z,95680.16
2024-02-07T21:14:02.370Z,95675.47
2024-02-07T21:16:06.548Z,95679.69
2024-02-07T21:18:11.192Z,95685.75
2024-02-07T21:20:16.199Z,95686.53
2024-02-07T21:22:19.806Z,95681.25
2024-02-07T21:24:23.063Z,95677.03
2024-02-07T21:26:26.489Z,95663.34
2024-02-07T21:28:29.805Z,95670.50
2024-02-07T21:30:33.778Z,95668.94
2024-02-07T21:32:39.424Z,95671.44
2024-02-07T21:34:44.311Z,95670.34
2024-02-07T21:36:48.835Z,95666.91
2024-02-07T21:38:52.179Z,95670.34
2024-02-07T21:40:55.498Z,95668.28
2024-02-07T21:42:58.830Z,95672.03
2024-02-07T21:45:04.047Z,95663.00
2024-02-07T21:47:07.975Z,95664.13
2024-02-07T21:49:11.316Z,95669.41
2024-02-07T21:51:19.356Z,95663.63
2024-02-07T21:53:23.730Z,95663.94
2024-02-07T21:55:27.970Z,95664.09
2024-02-07T21:57:31.451Z,95665.47
2024-02-07T21:59:33.790Z,95672.13
2024-02-07T22:01:37.188Z,95662.19
2024-02-07T22:03:40.501Z,95665.44
2024-02-07T22:05:43.735Z,95665.44
2024-02-07T22:07:48.504Z,95655.94
2024-02-07T22:09:51.952Z,95660.63
2024-02-07T22:11:55.979Z,95664.66
2024-02-07T22:13:59.246Z,95662.34
2024-02-07T22:16:01.630Z,95660.00
2024-02-07T22:18:05.559Z,95643.97
2024-02-07T22:20:11.442Z,95658.75
2024-02-07T22:22:14.813Z,95665.88
2024-02-07T22:24:19.797Z,95656.72
2024-02-07T22:26:22.044Z,95658.88
2024-02-07T22:28:25.388Z,95653.13
2024-02-07T22:30:28.637Z,95657.13
2024-02-07T22:32:31.129Z,95663.50
2024-02-07T22:34:35.360Z,95640.66
2024-02-07T22:36:38.806Z,95655.22
2024-02-07T22:38:41.280Z,95652.13
2024-02-07T22:40:46.342Z,95649.03
2024-02-07T22:42:50.044Z,95657.53
2024-02-07T22:44:53.433Z,95646.19
2024-02-07T22:46:57.788Z,95642.28
2024-02-07T22:49:01.179Z,95646.81
2024-02-07T22:51:04.743Z,95644.16
2024-02-07T22:53:08.230Z,95649.75
2024-02-07T22:55:11.613Z,95634.97
2024-02-07T22:57:18.187Z,95634.97
2024-02-07T22:59:23.196Z,95630.81
2024-02-07T23:01:27.476Z,95640.88
2024-02-07T23:03:29.895Z,95628.75
2024-02-07T23:05:33.296Z,95635.91
2024-02-07T23:07:35.585Z,95632.19
2024-02-07T23:09:39.011Z,95645.69
2024-02-07T23:11:42.264Z,95641.00
2024-02-07T23:13:47.047Z,95645.34
2024-02-07T23:15:50.743Z,95642.69
2024-02-07T23:17:54.184Z,95653.25
2024-02-07T23:19:56.523Z,95638.50
2024-02-07T23:21:59.932Z,95637.41
2024-02-07T23:24:03.210Z,95639.25
2024-02-07T23:26:06.826Z,95649.81
2024-02-07T23:28:10.972Z,95651.38
2024-02-07T23:30:16.522Z,95651.69
2024-02-07T23:32:19.800Z,95641.13
2024-02-07T23:34:23.494Z,95650.91
2024-02-07T23:36:26.845Z,95644.84
2024-02-07T23:38:30.829Z,95640.66
2024-02-07T23:40:34.095Z,95638.63
2024-02-07T23:42:36.455Z,95639.41
2024-02-07T23:44:39.740Z,95634.44
2024-02-07T23:46:44.471Z,95637.38
2024-02-07T23:48:48.069Z,95634.44
2024-02-07T23:50:51.558Z,95641.56
2024-02-07T23:52:55.034Z,95642.03
2024-02-07T23:54:58.362Z,95640.47
2024-02-07T23:57:02.237Z,95637.38
2024-02-07T23:59:05.718Z,95632.09
